sensor_id;sensor_type;location;lat;lon;timestamp;pressure;altitude;pressure_sealevel;temperature;humidity
39209;BME280;24929;51.982;4.664;2023-02-10T00:03:33;79599.16;;;-143.36;nan
39209;BME280;24929;51.982;4.664;2023-02-10T00:05:58;79589.09;;;-143.36;nan
39209;BME280;24929;51.982;4.664;2023-02-10T00:08:24;79550.94;;;-143.36;nan
39209;BME280;24929;51.982;4.664;2023-02-10T00:10:49;79593.13;;;-143.36;nan
39209;BME280;24929;51.982;4.664;2023-02-10T00:13:15;79577.06;;;-143.36;nan
39209;BME280;24929;51.982;4.664;2023-02-10T00:15:40;79573.03;;;-143.36;nan
39209;BME280;24929;51.982;4.664;2023-02-10T00:18:06;79554.97;;;-143.36;nan
39209;BME280;24929;51.982;4.664;2023-02-10T00:20:31;79565.00;;;-143.36;nan
39209;BME280;24929;51.982;4.664;2023-02-10T00:22:57;79512.78;;;-143.36;nan
39209;BME280;24929;51.982;4.664;2023-02-10T00:25:22;79520.81;;;-143.36;nan
39209;BME280;24929;51.982;4.664;2023-02-10T00:27:47;79516.81;;;-143.36;nan
39209;BME280;24929;51.982;4.664;2023-02-10T00:30:13;79526.84;;;-143.36;nan
39209;BME280;24929;51.982;4.664;2023-02-10T00:32:39;79573.03;;;-143.36;nan
39209;BME280;24929;51.982;4.664;2023-02-10T00:35:06;79585.09;;;-143.36;nan
39209;BME280;24929;51.982;4.664;2023-02-10T00:37:32;79599.16;;;-143.36;nan
39209;BME280;24929;51.982;4.664;2023-02-10T00:39:58;79613.22;;;-143.36;nan
39209;BME280;24929;51.982;4.664;2023-02-10T00:42:23;79609.19;;;-143.36;nan
39209;BME280;24929;51.982;4.664;2023-02-10T00:44:49;79631.28;;;-143.36;nan
39209;BME280;24929;51.982;4.664;2023-02-10T00:47:14;79585.09;;;-143.36;nan
39209;BME280;24929;51.982;4.664;2023-02-10T00:49:39;79589.09;;;-143.36;nan
39209;BME280;24929;51.982;4.664;2023-02-10T00:52:05;79579.06;;;-143.36;nan
39209;BME280;24929;51.982;4.664;2023-02-10T00:54:30;79577.06;;;-143.36;nan
39209;BME280;24929;51.982;4.664;2023-02-10T00:56:56;79534.88;;;-143.36;nan
39209;BME280;24929;51.982;4.664;2023-02-10T00:59:21;79532.88;;;-143.36;nan
39209;BME280;24929;51.982;4.664;2023-02-10T01:01:47;79552.97;;;-143.36;nan
39209;BME280;24929;51.982;4.664;2023-02-10T01:04:12;79548.94;;;-143.36;nan
39209;BME280;24929;51.982;4.664;2023-02-10T01:06:38;79563.00;;;-143.36;nan
39209;BME280;24929;51.982;4.664;2023-02-10T01:09:03;79591.13;;;-143.36;nan
39209;BME280;24929;51.982;4.664;2023-02-10T01:11:29;79599.16;;;-143.36;nan
39209;BME280;24929;51.982;4.664;2023-02-10T01:13:54;79615.22;;;-143.36;nan
39209;BME280;24929;51.982;4.664;2023-02-10T01:16:20;79607.19;;;-143.36;nan
39209;BME280;24929;51.982;4.664;2023-02-10T01:18:46;79625.25;;;-143.36;nan
39209;BME280;24929;51.982;4.664;2023-02-10T01:21:14;79605.16;;;-143.36;nan
39209;BME280;24929;51.982;4.664;2023-02-10T01:23:40;79693.53;;;-143.36;nan
39209;BME280;24929;51.982;4.664;2023-02-10T01:26:06;79669.44;;;-143.36;nan
39209;BME280;24929;51.982;4.664;2023-02-10T01:28:32;79649.34;;;-143.36;nan
39209;BME280;24929;51.982;4.664;2023-02-10T01:30:57;79645.34;;;-143.36;nan
39209;BME280;24929;51.982;4.664;2023-02-10T01:33:23;79657.38;;;-143.36;nan
39209;BME280;24929;51.982;4.664;2023-02-10T01:35:48;79681.50;;;-143.36;nan
39209;BME280;24929;51.982;4.664;2023-02-10T01:38:14;79671.44;;;-143.36;nan
39209;BME280;24929;51.982;4.664;2023-02-10T01:40:39;79683.50;;;-143.36;nan
39209;BME280;24929;51.982;4.664;2023-02-10T01:43:13;79639.31;;;-143.36;nan
39209;BME280;24929;51.982;4.664;2023-02-10T01:45:39;79703.56;;;-143.36;nan
39209;BME280;24929;51.982;4.664;2023-02-10T01:48:06;79673.44;;;-143.36;nan
39209;BME280;24929;51.982;4.664;2023-02-10T01:51:03;79651.38;;;-143.36;nan
39209;BME280;24929;51.982;4.664;2023-02-10T01:53:30;79707.59;;;-143.36;nan
39209;BME280;24929;51.982;4.664;2023-02-10T01:55:56;79697.56;;;-143.36;nan
39209;BME280;24929;51.982;4.664;2023-02-10T01:58:25;79677.47;;;-143.36;nan
39209;BME280;24929;51.982;4.664;2023-02-10T02:00:52;79735.72;;;-143.36;nan
39209;BME280;24929;51.982;4.664;2023-02-10T02:03:17;79747.75;;;-143.36;nan
39209;BME280;24929;51.982;4.664;2023-02-10T02:05:43;79743.75;;;-143.36;nan
39209;BME280;24929;51.982;4.664;2023-02-10T02:08:18;79767.84;;;-143.36;nan
39209;BME280;24929;51.982;4.664;2023-02-10T02:22:18;79709.59;;;-143.36;nan
39209;BME280;24929;51.982;4.664;2023-02-10T02:32:37;79679.47;;;-143.36;nan
39209;BME280;24929;51.982;4.664;2023-02-10T02:35:08;79679.47;;;-143.36;nan
39209;BME280;24929;51.982;4.664;2023-02-10T02:37:41;79683.50;;;-143.36;nan
39209;BME280;24929;51.982;4.664;2023-02-10T02:40:08;79721.66;;;-143.36;nan
39209;BME280;24929;51.982;4.664;2023-02-10T02:42:34;79717.63;;;-143.36;nan
39209;BME280;24929;51.982;4.664;2023-02-10T02:45:08;79689.53;;;-143.36;nan
39209;BME280;24929;51.982;4.664;2023-02-10T02:50:27;79709.59;;;-143.36;nan
39209;BME280;24929;51.982;4.664;2023-02-10T02:53:09;79685.50;;;-143.36;nan
39209;BME280;24929;51.982;4.664;2023-02-10T03:01:16;79777.88;;;-143.36;nan
39209;BME280;24929;51.982;4.664;2023-02-10T03:03:46;79781.91;;;-143.36;nan
39209;BME280;24929;51.982;4.664;2023-02-10T03:06:11;79785.91;;;-143.36;nan
39209;BME280;24929;51.982;4.664;2023-02-10T03:08:39;79781.91;;;-143.36;nan
39209;BME280;24929;51.982;4.664;2023-02-10T03:11:05;79761.81;;;-143.36;nan
39209;BME280;24929;51.982;4.664;2023-02-10T03:13:30;79743.75;;;-143.36;nan
39209;BME280;24929;51.982;4.664;2023-02-10T03:15:58;79719.66;;;-143.36;nan
39209;BME280;24929;51.982;4.664;2023-02-10T03:18:24;79779.91;;;-143.36;nan
39209;BME280;24929;51.982;4.664;2023-02-10T03:20:49;79781.91;;;-143.36;nan
39209;BME280;24929;51.982;4.664;2023-02-10T03:23:14;79769.84;;;-143.36;nan
39209;BME280;24929;51.982;4.664;2023-02-10T03:25:40;79767.84;;;-143.36;nan
39209;BME280;24929;51.982;4.664;2023-02-10T03:28:05;79771.84;;;-143.36;nan
39209;BME280;24929;51.982;4.664;2023-02-10T03:30:32;79771.84;;;-143.36;nan
39209;BME280;24929;51.982;4.664;2023-02-10T03:32:57;79771.84;;;-143.36;nan
39209;BME280;24929;51.982;4.664;2023-02-10T03:35:22;79769.84;;;-143.36;nan
39209;BME280;24929;51.982;4.664;2023-02-10T03:37:48;79747.75;;;-143.36;nan
39209;BME280;24929;51.982;4.664;2023-02-10T03:40:14;79763.81;;;-143.36;nan
39209;BME280;24929;51.982;4.664;2023-02-10T03:42:39;79757.81;;;-143.36;nan
39209;BME280;24929;51.982;4.664;2023-02-10T03:45:05;79759.81;;;-143.36;nan
39209;BME280;24929;51.982;4.664;2023-02-10T03:47:30;79763.81;;;-143.36;nan
39209;BME280;24929;51.982;4.664;2023-02-10T03:49:55;79775.88;;;-143.36;nan
39209;BME280;24929;51.982;4.664;2023-02-10T03:52:21;79783.91;;;-143.36;nan
39209;BME280;24929;51.982;4.664;2023-02-10T03:54:47;79791.94;;;-143.36;nan
39209;BME280;24929;51.982;4.664;2023-02-10T03:57:12;79812.03;;;-143.36;nan
39209;BME280;24929;51.982;4.664;2023-02-10T03:59:37;79801.97;;;-143.36;nan
39209;BME280;24929;51.982;4.664;2023-02-10T04:02:03;79828.09;;;-143.36;nan
39209;BME280;24929;51.982;4.664;2023-02-10T04:04:28;79812.03;;;-143.36;nan
39209;BME280;24929;51.982;4.664;2023-02-10T04:06:53;79812.03;;;-143.36;nan
39209;BME280;24929;51.982;4.664;2023-02-10T04:09:19;79767.84;;;-143.36;nan
39209;BME280;24929;51.982;4.664;2023-02-10T04:11:44;79751.78;;;-143.36;nan
39209;BME280;24929;51.982;4.664;2023-02-10T04:14:10;79749.78;;;-143.36;nan
39209;BME280;24929;51.982;4.664;2023-02-10T04:16:35;79761.81;;;-143.36;nan
39209;BME280;24929;51.982;4.664;2023-02-10T04:19:00;79745.75;;;-143.36;nan
39209;BME280;24929;51.982;4.664;2023-02-10T04:21:26;79731.69;;;-143.36;nan
39209;BME280;24929;51.982;4.664;2023-02-10T04:23:52;79725.66;;;-143.36;nan
39209;BME280;24929;51.982;4.664;2023-02-10T04:26:18;79763.81;;;-143.36;nan
39209;BME280;24929;51.982;4.664;2023-02-10T04:28:43;79767.84;;;-143.36;nan
39209;BME280;24929;51.982;4.664;2023-02-10T04:31:09;79747.75;;;-143.36;nan
39209;BME280;24929;51.982;4.664;2023-02-10T04:33:35;79743.75;;;-143.36;nan
39209;BME280;24929;51.982;4.664;2023-02-10T04:36:00;79747.75;;;-143.36;nan
39209;BME280;24929;51.982;4.664;2023-02-10T04:38:28;79739.72;;;-143.36;nan
39209;BME280;24929;51.982;4.664;2023-02-10T04:40:53;79705.59;;;-143.36;nan
39209;BME280;24929;51.982;4.664;2023-02-10T04:43:18;79677.47;;;-143.36;nan
39209;BME280;24929;51.982;4.664;2023-02-10T04:45:44;79691.53;;;-143.36;nan
39209;BME280;24929;51.982;4.664;2023-02-10T04:48:09;79701.56;;;-143.36;nan
39209;BME280;24929;51.982;4.664;2023-02-10T04:50:38;79631.28;;;-143.36;nan
39209;BME280;24929;51.982;4.664;2023-02-10T04:53:04;79699.56;;;-143.36;nan
39209;BME280;24929;51.982;4.664;2023-02-10T04:55:29;79697.56;;;-143.36;nan
39209;BME280;24929;51.982;4.664;2023-02-10T04:57:54;79693.53;;;-143.36;nan
39209;BME280;24929;51.982;4.664;2023-02-10T05:00:20;79715.63;;;-143.36;nan
39209;BME280;24929;51.982;4.664;2023-02-10T05:02:45;79713.63;;;-143.36;nan
39209;BME280;24929;51.982;4.664;2023-02-10T05:05:12;79667.44;;;-143.36;nan
39209;BME280;24929;51.982;4.664;2023-02-10T05:07:38;79671.44;;;-143.36;nan
39209;BME280;24929;51.982;4.664;2023-02-10T05:10:04;79681.50;;;-143.36;nan
39209;BME280;24929;51.982;4.664;2023-02-10T05:12:30;79689.53;;;-143.36;nan
39209;BME280;24929;51.982;4.664;2023-02-10T05:14:55;79709.59;;;-143.36;nan
39209;BME280;24929;51.982;4.664;2023-02-10T05:17:20;79689.53;;;-143.36;nan
39209;BME280;24929;51.982;4.664;2023-02-10T05:20:23;79649.34;;;-143.36;nan
39209;BME280;24929;51.982;4.664;2023-02-10T05:22:48;79703.56;;;-143.36;nan
39209;BME280;24929;51.982;4.664;2023-02-10T05:25:13;79711.63;;;-143.36;nan
39209;BME280;24929;51.982;4.664;2023-02-10T05:27:39;79725.66;;;-143.36;nan
39209;BME280;24929;51.982;4.664;2023-02-10T05:30:05;79699.56;;;-143.36;nan
39209;BME280;24929;51.982;4.664;2023-02-10T05:32:32;79717.63;;;-143.36;nan
39209;BME280;24929;51.982;4.664;2023-02-10T05:34:57;79715.63;;;-143.36;nan
39209;BME280;24929;51.982;4.664;2023-02-10T05:37:23;79731.69;;;-143.36;nan
39209;BME280;24929;51.982;4.664;2023-02-10T05:39:48;79705.59;;;-143.36;nan
39209;BME280;24929;51.982;4.664;2023-02-10T05:42:14;79703.56;;;-143.36;nan
39209;BME280;24929;51.982;4.664;2023-02-10T05:44:39;79705.59;;;-143.36;nan
39209;BME280;24929;51.982;4.664;2023-02-10T05:47:04;79705.59;;;-143.36;nan
39209;BME280;24929;51.982;4.664;2023-02-10T05:49:30;79745.75;;;-143.36;nan
39209;BME280;24929;51.982;4.664;2023-02-10T05:51:55;79761.81;;;-143.36;nan
39209;BME280;24929;51.982;4.664;2023-02-10T05:54:20;79735.72;;;-143.36;nan
39209;BME280;24929;51.982;4.664;2023-02-10T05:56:46;79765.84;;;-143.36;nan
39209;BME280;24929;51.982;4.664;2023-02-10T05:59:12;79745.75;;;-143.36;nan
39209;BME280;24929;51.982;4.664;2023-02-10T06:01:40;79749.78;;;-143.36;nan
39209;BME280;24929;51.982;4.664;2023-02-10T06:04:05;79765.84;;;-143.36;nan
39209;BME280;24929;51.982;4.664;2023-02-10T06:06:30;79781.91;;;-143.36;nan
39209;BME280;24929;51.982;4.664;2023-02-10T06:08:56;79795.97;;;-143.36;nan
39209;BME280;24929;51.982;4.664;2023-02-10T06:11:21;79787.94;;;-143.36;nan
39209;BME280;24929;51.982;4.664;2023-02-10T06:13:47;79806.00;;;-143.36;nan
39209;BME280;24929;51.982;4.664;2023-02-10T06:16:12;79797.97;;;-143.36;nan
39209;BME280;24929;51.982;4.664;2023-02-10T06:18:38;79810.03;;;-143.36;nan
39209;BME280;24929;51.982;4.664;2023-02-10T06:21:03;79830.09;;;-143.36;nan
39209;BME280;24929;51.982;4.664;2023-02-10T06:23:29;79816.03;;;-143.36;nan
39209;BME280;24929;51.982;4.664;2023-02-10T06:25:54;79816.03;;;-143.36;nan
39209;BME280;24929;51.982;4.664;2023-02-10T06:28:24;79779.91;;;-143.36;nan
39209;BME280;24929;51.982;4.664;2023-02-10T06:30:50;79814.03;;;-143.36;nan
39209;BME280;24929;51.982;4.664;2023-02-10T06:33:16;79795.97;;;-143.36;nan
39209;BME280;24929;51.982;4.664;2023-02-10T06:35:41;79836.13;;;-143.36;nan
39209;BME280;24929;51.982;4.664;2023-02-10T06:38:07;79816.03;;;-143.36;nan
39209;BME280;24929;51.982;4.664;2023-02-10T06:40:32;79816.03;;;-143.36;nan
39209;BME280;24929;51.982;4.664;2023-02-10T06:42:57;79828.09;;;-143.36;nan
39209;BME280;24929;51.982;4.664;2023-02-10T06:45:23;79818.06;;;-143.36;nan
39209;BME280;24929;51.982;4.664;2023-02-10T06:47:48;79830.09;;;-143.36;nan
39209;BME280;24929;51.982;4.664;2023-02-10T06:50:14;79814.03;;;-143.36;nan
39209;BME280;24929;51.982;4.664;2023-02-10T06:52:39;79854.19;;;-143.36;nan
39209;BME280;24929;51.982;4.664;2023-02-10T06:55:06;79787.94;;;-143.36;nan
39209;BME280;24929;51.982;4.664;2023-02-10T06:57:32;79759.81;;;-143.36;nan
39209;BME280;24929;51.982;4.664;2023-02-10T06:59:58;79779.91;;;-143.36;nan
39209;BME280;24929;51.982;4.664;2023-02-10T07:02:24;79771.84;;;-143.36;nan
39209;BME280;24929;51.982;4.664;2023-02-10T07:04:50;79775.88;;;-143.36;nan
39209;BME280;24929;51.982;4.664;2023-02-10T07:07:15;79783.91;;;-143.36;nan
39209;BME280;24929;51.982;4.664;2023-02-10T07:09:41;79777.88;;;-143.36;nan
39209;BME280;24929;51.982;4.664;2023-02-10T07:12:06;79799.97;;;-143.36;nan
39209;BME280;24929;51.982;4.664;2023-02-10T07:14:31;79795.97;;;-143.36;nan
39209;BME280;24929;51.982;4.664;2023-02-10T07:16:57;79793.94;;;-143.36;nan
39209;BME280;24929;51.982;4.664;2023-02-10T07:19:22;79789.94;;;-143.36;nan
39209;BME280;24929;51.982;4.664;2023-02-10T07:21:48;79799.97;;;-143.36;nan
39209;BME280;24929;51.982;4.664;2023-02-10T07:24:13;79797.97;;;-143.36;nan
39209;BME280;24929;51.982;4.664;2023-02-10T07:26:39;79771.84;;;-143.36;nan
39209;BME280;24929;51.982;4.664;2023-02-10T07:29:05;79797.97;;;-143.36;nan
39209;BME280;24929;51.982;4.664;2023-02-10T07:31:31;79816.03;;;-143.36;nan
39209;BME280;24929;51.982;4.664;2023-02-10T07:34:00;79810.03;;;-143.36;nan
39209;BME280;24929;51.982;4.664;2023-02-10T07:39:56;79729.69;;;-143.36;nan
39209;BME280;24929;51.982;4.664;2023-02-10T07:42:22;79804.00;;;-143.36;nan
39209;BME280;24929;51.982;4.664;2023-02-10T07:44:47;79799.97;;;-143.36;nan
39209;BME280;24929;51.982;4.664;2023-02-10T07:47:12;79763.81;;;-143.36;nan
39209;BME280;24929;51.982;4.664;2023-02-10T07:49:38;79769.84;;;-143.36;nan
39209;BME280;24929;51.982;4.664;2023-02-10T07:52:03;79753.78;;;-143.36;nan
39209;BME280;24929;51.982;4.664;2023-02-10T07:54:29;79775.88;;;-143.36;nan
39209;BME280;24929;51.982;4.664;2023-02-10T07:56:56;79741.75;;;-143.36;nan
39209;BME280;24929;51.982;4.664;2023-02-10T07:59:21;79775.88;;;-143.36;nan
39209;BME280;24929;51.982;4.664;2023-02-10T08:01:47;79777.88;;;-143.36;nan
39209;BME280;24929;51.982;4.664;2023-02-10T08:04:12;79779.91;;;-143.36;nan
39209;BME280;24929;51.982;4.664;2023-02-10T08:06:38;79747.75;;;-143.36;nan
39209;BME280;24929;51.982;4.664;2023-02-10T08:09:05;79775.88;;;-143.36;nan
39209;BME280;24929;51.982;4.664;2023-02-10T08:11:30;79757.81;;;-143.36;nan
39209;BME280;24929;51.982;4.664;2023-02-10T08:13:55;79763.81;;;-143.36;nan
39209;BME280;24929;51.982;4.664;2023-02-10T08:16:21;79765.84;;;-143.36;nan
39209;BME280;24929;51.982;4.664;2023-02-10T08:18:46;79763.81;;;-143.36;nan
39209;BME280;24929;51.982;4.664;2023-02-10T08:21:11;79793.94;;;-143.36;nan
39209;BME280;24929;51.982;4.664;2023-02-10T08:23:37;79787.94;;;-143.36;nan
39209;BME280;24929;51.982;4.664;2023-02-10T08:26:08;79755.78;;;-143.36;nan
39209;BME280;24929;51.982;4.664;2023-02-10T08:28:34;79783.91;;;-143.36;nan
39209;BME280;24929;51.982;4.664;2023-02-10T08:31:08;79739.72;;;-143.36;nan
39209;BME280;24929;51.982;4.664;2023-02-10T08:33:35;79731.69;;;-143.36;nan
39209;BME280;24929;51.982;4.664;2023-02-10T08:36:09;79743.75;;;-143.36;nan
39209;BME280;24929;51.982;4.664;2023-02-10T08:38:36;79759.81;;;-143.36;nan
39209;BME280;24929;51.982;4.664;2023-02-10T08:41:02;79757.81;;;-143.36;nan
39209;BME280;24929;51.982;4.664;2023-02-10T08:43:28;79846.16;;;-143.36;nan
39209;BME280;24929;51.982;4.664;2023-02-10T08:45:58;79844.16;;;-143.36;nan
39209;BME280;24929;51.982;4.664;2023-02-10T08:48:25;79878.31;;;-143.36;nan
39209;BME280;24929;51.982;4.664;2023-02-10T08:50:50;79864.25;;;-143.36;nan
39209;BME280;24929;51.982;4.664;2023-02-10T08:53:16;79846.16;;;-143.36;nan
39209;BME280;24929;51.982;4.664;2023-02-10T08:55:42;79952.63;;;-143.36;nan
39209;BME280;24929;51.982;4.664;2023-02-10T08:58:07;79787.94;;;-143.36;nan
39209;BME280;24929;51.982;4.664;2023-02-10T09:00:33;79842.16;;;-143.36;nan
39209;BME280;24929;51.982;4.664;2023-02-10T09:02:59;80038.97;;;-143.36;nan
39209;BME280;24929;51.982;4.664;2023-02-10T09:05:24;80089.19;;;-143.36;nan
39209;BME280;24929;51.982;4.664;2023-02-10T09:07:50;80010.88;;;-143.36;nan
39209;BME280;24929;51.982;4.664;2023-02-10T09:10:15;79886.34;;;-143.36;nan
39209;BME280;24929;51.982;4.664;2023-02-10T09:12:42;79858.22;;;-143.36;nan
39209;BME280;24929;51.982;4.664;2023-02-10T09:15:08;79900.41;;;-143.36;nan
39209;BME280;24929;51.982;4.664;2023-02-10T09:17:34;79880.31;;;-143.36;nan
39209;BME280;24929;51.982;4.664;2023-02-10T09:19:59;79858.22;;;-143.36;nan
39209;BME280;24929;51.982;4.664;2023-02-10T09:22:25;79789.94;;;-143.36;nan
39209;BME280;24929;51.982;4.664;2023-02-10T09:24:53;79733.69;;;-143.36;nan
39209;BME280;24929;51.982;4.664;2023-02-10T09:27:20;79797.97;;;-143.36;nan
39209;BME280;24929;51.982;4.664;2023-02-10T09:29:46;79840.16;;;-143.36;nan
39209;BME280;24929;51.982;4.664;2023-02-10T09:32:12;80103.25;;;-143.36;nan
39209;BME280;24929;51.982;4.664;2023-02-10T09:34:37;79932.53;;;-143.36;nan
39209;BME280;24929;51.982;4.664;2023-02-10T09:37:05;80061.06;;;-143.36;nan
39209;BME280;24929;51.982;4.664;2023-02-10T09:39:31;79940.56;;;-143.36;nan
39209;BME280;24929;51.982;4.664;2023-02-10T09:42:17;80002.81;;;-143.36;nan
39209;BME280;24929;51.982;4.664;2023-02-10T09:45:02;79779.91;;;-143.36;nan
39209;BME280;24929;51.982;4.664;2023-02-10T09:51:12;79611.19;;;-143.36;nan
39209;BME280;24929;51.982;4.664;2023-02-10T09:53:30;79573.03;;;-143.36;nan
39209;BME280;24929;51.982;4.664;2023-02-10T09:56:03;79601.16;;;-143.36;nan
39209;BME280;24929;51.982;4.664;2023-02-10T09:58:36;79482.66;;;-143.36;nan
39209;BME280;24929;51.982;4.664;2023-02-10T10:01:34;79818.06;;;-143.36;nan
39209;BME280;24929;51.982;4.664;2023-02-10T10:04:08;79946.59;;;-143.36;nan
39209;BME280;24929;51.982;4.664;2023-02-10T10:06:38;79870.28;;;-143.36;nan
39209;BME280;24929;51.982;4.664;2023-02-10T10:09:20;79900.41;;;-143.36;nan
39209;BME280;24929;51.982;4.664;2023-02-10T10:11:52;79659.41;;;-143.36;nan
39209;BME280;24929;51.982;4.664;2023-02-10T10:19:26;79846.16;;;-143.36;nan
39209;BME280;24929;51.982;4.664;2023-02-10T10:30:51;79301.94;;;-143.36;nan
39209;BME280;24929;51.982;4.664;2023-02-10T10:33:25;79297.91;;;-143.36;nan
39209;BME280;24929;51.982;4.664;2023-02-10T10:35:53;79384.28;;;-143.36;nan
39209;BME280;24929;51.982;4.664;2023-02-10T10:38:22;79303.94;;;-143.36;nan
39209;BME280;24929;51.982;4.664;2023-02-10T10:40:48;79267.78;;;-143.36;nan
39209;BME280;24929;51.982;4.664;2023-02-10T10:43:27;79221.63;;;-143.36;nan
39209;BME280;24929;51.982;4.664;2023-02-10T10:45:59;79189.47;;;-143.36;nan
39209;BME280;24929;51.982;4.664;2023-02-10T10:48:46;79219.59;;;-143.36;nan
39209;BME280;24929;51.982;4.664;2023-02-10T10:51:12;79203.53;;;-143.36;nan
39209;BME280;24929;51.982;4.664;2023-02-10T10:53:49;79147.31;;;-143.36;nan
39209;BME280;24929;51.982;4.664;2023-02-10T10:56:38;79064.97;;;-143.36;nan
39209;BME280;24929;51.982;4.664;2023-02-10T10:59:13;79129.25;;;-143.36;nan
39209;BME280;24929;51.982;4.664;2023-02-10T11:01:42;79089.09;;;-143.36;nan
39209;BME280;24929;51.982;4.664;2023-02-10T11:04:20;79004.75;;;-143.36;nan
39209;BME280;24929;51.982;4.664;2023-02-10T11:06:52;79014.78;;;-143.36;nan
39209;BME280;24929;51.982;4.664;2023-02-10T11:11:47;79073.03;;;-143.36;nan
39209;BME280;24929;51.982;4.664;2023-02-10T11:14:28;79006.75;;;-143.36;nan
39209;BME280;24929;51.982;4.664;2023-02-10T11:16:57;79050.94;;;-143.36;nan
39209;BME280;24929;51.982;4.664;2023-02-10T11:19:29;79075.03;;;-143.36;nan
39209;BME280;24929;51.982;4.664;2023-02-10T11:21:54;79081.06;;;-143.36;nan
39209;BME280;24929;51.982;4.664;2023-02-10T11:27:06;79014.78;;;-143.36;nan
39209;BME280;24929;51.982;4.664;2023-02-10T11:29:48;78990.69;;;-143.36;nan
39209;BME280;24929;51.982;4.664;2023-02-10T11:32:31;78956.56;;;-143.36;nan
39209;BME280;24929;51.982;4.664;2023-02-10T11:35:01;78982.66;;;-143.36;nan
39209;BME280;24929;51.982;4.664;2023-02-10T11:37:36;78936.47;;;-143.36;nan
39209;BME280;24929;51.982;4.664;2023-02-10T11:40:20;78894.31;;;-143.36;nan
39209;BME280;24929;51.982;4.664;2023-02-10T11:42:54;78902.34;;;-143.36;nan
39209;BME280;24929;51.982;4.664;2023-02-10T11:45:26;78912.38;;;-143.36;nan
39209;BME280;24929;51.982;4.664;2023-02-10T11:48:15;79313.97;;;-143.36;nan
39209;BME280;24929;51.982;4.664;2023-02-10T11:50:41;79079.03;;;-143.36;nan
39209;BME280;24929;51.982;4.664;2023-02-10T11:53:18;79000.72;;;-143.36;nan
39209;BME280;24929;51.982;4.664;2023-02-10T11:55:57;78958.56;;;-143.36;nan
39209;BME280;24929;51.982;4.664;2023-02-10T12:04:30;78902.34;;;-143.36;nan
39209;BME280;24929;51.982;4.664;2023-02-10T12:07:10;78860.19;;;-143.36;nan
39209;BME280;24929;51.982;4.664;2023-02-10T12:18:39;78828.03;;;-143.36;nan
39209;BME280;24929;51.982;4.664;2023-02-10T12:23:59;78852.16;;;-143.36;nan
39209;BME280;24929;51.982;4.664;2023-02-10T12:26:43;78882.25;;;-143.36;nan
39209;BME280;24929;51.982;4.664;2023-02-10T12:32:06;78820.03;;;-143.36;nan
39209;BME280;24929;51.982;4.664;2023-02-10T12:46:15;78701.56;;;-143.36;nan
39209;BME280;24929;51.982;4.664;2023-02-10T12:54:24;78681.47;;;-143.36;nan
39209;BME280;24929;51.982;4.664;2023-02-10T12:56:56;78703.56;;;-143.36;nan
39209;BME280;24929;51.982;4.664;2023-02-10T12:59:45;78653.38;;;-143.36;nan
39209;BME280;24929;51.982;4.664;2023-02-10T13:02:17;78900.34;;;-143.36;nan
39209;BME280;24929;51.982;4.664;2023-02-10T13:04:49;78912.38;;;-143.36;nan
39209;BME280;24929;51.982;4.664;2023-02-10T13:08:10;78928.44;;;-143.36;nan
39209;BME280;24929;51.982;4.664;2023-02-10T13:10:45;78930.44;;;-143.36;nan
39209;BME280;24929;51.982;4.664;2023-02-10T13:13:17;78894.31;;;-143.36;nan
39209;BME280;24929;51.982;4.664;2023-02-10T13:15:55;78882.25;;;-143.36;nan
39209;BME280;24929;51.982;4.664;2023-02-10T13:18:30;78870.22;;;-143.36;nan
39209;BME280;24929;51.982;4.664;2023-02-10T13:21:17;78840.09;;;-143.36;nan
39209;BME280;24929;51.982;4.664;2023-02-10T13:53:47;78868.22;;;-143.36;nan
39209;BME280;24929;51.982;4.664;2023-02-10T13:56:25;78757.78;;;-143.36;nan
39209;BME280;24929;51.982;4.664;2023-02-10T13:59:01;78816.00;;;-143.36;nan
39209;BME280;24929;51.982;4.664;2023-02-10T14:01:34;78840.09;;;-143.36;nan
39209;BME280;24929;51.982;4.664;2023-02-10T14:32:12;78946.50;;;-143.36;nan
39209;BME280;24929;51.982;4.664;2023-02-10T14:34:39;79010.78;;;-143.36;nan
39209;BME280;24929;51.982;4.664;2023-02-10T14:37:17;78952.53;;;-143.36;nan
39209;BME280;24929;51.982;4.664;2023-02-10T14:40:00;78906.34;;;-143.36;nan
39209;BME280;24929;51.982;4.664;2023-02-10T14:42:31;78864.19;;;-143.36;nan
39209;BME280;24929;51.982;4.664;2023-02-10T14:44:58;78888.28;;;-143.36;nan
39209;BME280;24929;51.982;4.664;2023-02-10T14:47:36;78916.41;;;-143.36;nan
39209;BME280;24929;51.982;4.664;2023-02-10T14:50:04;78880.25;;;-143.36;nan
39209;BME280;24929;51.982;4.664;2023-02-10T14:52:33;78910.38;;;-143.36;nan
39209;BME280;24929;51.982;4.664;2023-02-10T14:58:42;78848.13;;;-143.36;nan
39209;BME280;24929;51.982;4.664;2023-02-10T15:03:33;78960.56;;;-143.36;nan
39209;BME280;24929;51.982;4.664;2023-02-10T15:05:59;78938.47;;;-143.36;nan
39209;BME280;24929;51.982;4.664;2023-02-10T15:08:32;78858.16;;;-143.36;nan
39209;BME280;24929;51.982;4.664;2023-02-10T15:11:00;78888.28;;;-143.36;nan
39209;BME280;24929;51.982;4.664;2023-02-10T15:13:35;78880.25;;;-143.36;nan
39209;BME280;24929;51.982;4.664;2023-02-10T15:16:06;78918.41;;;-143.36;nan
39209;BME280;24929;51.982;4.664;2023-02-10T15:18:36;78926.44;;;-143.36;nan
39209;BME280;24929;51.982;4.664;2023-02-10T15:21:21;78936.47;;;-143.36;nan
39209;BME280;24929;51.982;4.664;2023-02-10T15:23:48;78960.56;;;-143.36;nan
39209;BME280;24929;51.982;4.664;2023-02-10T15:26:25;78974.63;;;-143.36;nan
39209;BME280;24929;51.982;4.664;2023-02-10T15:29:23;78962.56;;;-143.36;nan
39209;BME280;24929;51.982;4.664;2023-02-10T15:31:57;78998.72;;;-143.36;nan
39209;BME280;24929;51.982;4.664;2023-02-10T15:41:40;78908.38;;;-143.36;nan
39209;BME280;24929;51.982;4.664;2023-02-10T15:46:52;78972.63;;;-143.36;nan
39209;BME280;24929;51.982;4.664;2023-02-10T15:49:19;78992.69;;;-143.36;nan
39209;BME280;24929;51.982;4.664;2023-02-10T15:58:47;79071.00;;;-143.36;nan
39209;BME280;24929;51.982;4.664;2023-02-10T16:01:12;79103.13;;;-143.36;nan
39209;BME280;24929;51.982;4.664;2023-02-10T16:03:38;79089.09;;;-143.36;nan